HVN329 VVTS-VVDN
Flight info
| Callsign | HVN329 |
|---|---|
| Flight time | N/A |
| Altitude | 30000 |
| Route | PATMA5P PATMA Q2 SADAS/K0850F290 Q7 MUMGA Q1 SADIN SADIN1D |
| Aircraft | A20N/M-SDE2E3GHIJ1J3J4J5LM1ORWXYZ/LB1D1 |
Departure
| Time | 2026-05-07 14:41 |
|---|---|
| Airport | Tan Son Nhat International Airport (VVTS) |
Arrival
| Time | N/A |
|---|---|
| Airport | Da Nang International Airport (VVDN) |
| Time | Latitude | Longitude | Altitude | Speed | Heading |
|---|---|---|---|---|---|
| 2026-05-07 14:14 | 10.81421 | 106.65407 | 30 ft | 0 kts | 160° |
| 2026-05-07 14:30 | 10.81419 | 106.65408 | 30 ft | 0 kts | 160° |
| 2026-05-07 14:30 | 10.81418 | 106.65408 | 30 ft | 0 kts | 160° |
| 2026-05-07 14:30 | 10.81413 | 106.65409 | 30 ft | 0 kts | 159° |
| 2026-05-07 14:31 | 10.81406 | 106.65412 | 30 ft | 1 kts | 159° |
| 2026-05-07 14:31 | 10.81401 | 106.65414 | 30 ft | 0 kts | 159° |
| 2026-05-07 14:31 | 10.81391 | 106.65418 | 30 ft | 3 kts | 149° |
| 2026-05-07 14:31 | 10.81377 | 106.65446 | 30 ft | 5 kts | 95° |
| 2026-05-07 14:32 | 10.81385 | 106.65497 | 30 ft | 9 kts | 70° |
| 2026-05-07 14:32 | 10.81413 | 106.65574 | 30 ft | 13 kts | 70° |
| 2026-05-07 14:32 | 10.81453 | 106.65679 | 29 ft | 17 kts | 70° |
| 2026-05-07 14:32 | 10.81518 | 106.65784 | 28 ft | 16 kts | 15° |
| 2026-05-07 14:33 | 10.81632 | 106.65800 | 28 ft | 16 kts | 5° |
| 2026-05-07 14:33 | 10.81746 | 106.65814 | 28 ft | 15 kts | 28° |
| 2026-05-07 14:33 | 10.81794 | 106.65895 | 28 ft | 12 kts | 70° |
| 2026-05-07 14:33 | 10.81828 | 106.65986 | 28 ft | 14 kts | 69° |
| 2026-05-07 14:34 | 10.81869 | 106.66093 | 28 ft | 17 kts | 68° |
| 2026-05-07 14:34 | 10.81915 | 106.66214 | 28 ft | 18 kts | 70° |
| 2026-05-07 14:34 | 10.81961 | 106.66334 | 28 ft | 18 kts | 70° |
| 2026-05-07 14:34 | 10.82005 | 106.66454 | 28 ft | 17 kts | 69° |
| 2026-05-07 14:35 | 10.82052 | 106.66576 | 29 ft | 18 kts | 69° |
| 2026-05-07 14:35 | 10.82100 | 106.66702 | 31 ft | 19 kts | 69° |
| 2026-05-07 14:35 | 10.82147 | 106.66828 | 32 ft | 18 kts | 69° |
| 2026-05-07 14:35 | 10.82192 | 106.66948 | 34 ft | 17 kts | 69° |
| 2026-05-07 14:36 | 10.82270 | 106.67001 | 35 ft | 8 kts | 345° |
| 2026-05-07 14:36 | 10.82277 | 106.66999 | 35 ft | 0 kts | 345° |
| 2026-05-07 14:38 | 10.82280 | 106.66997 | 35 ft | 2 kts | 339° |
| 2026-05-07 14:38 | 10.82319 | 106.66970 | 34 ft | 10 kts | 317° |
| 2026-05-07 14:38 | 10.82346 | 106.66888 | 33 ft | 14 kts | 250° |
| 2026-05-07 14:39 | 10.82337 | 106.66864 | 32 ft | 0 kts | 249° |
| 2026-05-07 14:39 | 10.82337 | 106.66863 | 32 ft | 1 kts | 249° |
| 2026-05-07 14:40 | 10.82325 | 106.66831 | 32 ft | 19 kts | 249° |
| 2026-05-07 14:40 | 10.82172 | 106.66438 | 32 ft | 94 kts | 248° |
| 2026-05-07 14:40 | 10.81862 | 106.65612 | 30 ft | 153 kts | 248° |
| 2026-05-07 14:40 | 10.81452 | 106.64522 | 390 ft | 167 kts | 247° |
| 2026-05-07 14:41 | 10.81043 | 106.63402 | 887 ft | 173 kts | 245° |
| 2026-05-07 14:41 | 10.80614 | 106.62247 | 1481 ft | 175 kts | 245° |
| 2026-05-07 14:41 | 10.80167 | 106.61063 | 2016 ft | 182 kts | 245° |
| 2026-05-07 14:41 | 10.79691 | 106.59824 | 2346 ft | 196 kts | 245° |
| 2026-05-07 14:42 | 10.79172 | 106.58456 | 2659 ft | 213 kts | 246° |
| 2026-05-07 14:42 | 10.78801 | 106.56953 | 2953 ft | 232 kts | 271° |
| 2026-05-07 14:42 | 10.79379 | 106.55367 | 3195 ft | 250 kts | 314° |
| 2026-05-07 14:42 | 10.80876 | 106.54421 | 3528 ft | 261 kts | 351° |
| 2026-05-07 14:43 | 10.82717 | 106.54403 | 3977 ft | 269 kts | 8° |
| 2026-05-07 14:43 | 10.84047 | 106.54530 | 4446 ft | 273 kts | 7° |
| 2026-05-07 14:43 | 10.85938 | 106.54694 | 5198 ft | 273 kts | 7° |
| 2026-05-07 14:43 | 10.87877 | 106.54868 | 5958 ft | 274 kts | 7° |
| 2026-05-07 14:44 | 10.89782 | 106.55047 | 6688 ft | 275 kts | 7° |
| 2026-05-07 14:44 | 10.91715 | 106.55225 | 7385 ft | 277 kts | 7° |
| 2026-05-07 14:44 | 10.93673 | 106.55399 | 8075 ft | 279 kts | 7° |
| 2026-05-07 14:44 | 10.95613 | 106.55569 | 8744 ft | 280 kts | 10° |
| 2026-05-07 14:45 | 10.97480 | 106.56193 | 9347 ft | 278 kts | 35° |
| 2026-05-07 14:45 | 10.98892 | 106.57552 | 9976 ft | 278 kts | 52° |
| 2026-05-07 14:45 | 11.00067 | 106.59140 | 10379 ft | 288 kts | 54° |
| 2026-05-07 14:45 | 11.01305 | 106.60845 | 10653 ft | 303 kts | 54° |
| 2026-05-07 14:46 | 11.02524 | 106.62494 | 10888 ft | 317 kts | 53° |
| 2026-05-07 14:46 | 11.03782 | 106.64168 | 11121 ft | 330 kts | 53° |
| 2026-05-07 14:46 | 11.05250 | 106.66105 | 11360 ft | 344 kts | 53° |
| 2026-05-07 14:46 | 11.06672 | 106.67969 | 11668 ft | 353 kts | 53° |
| 2026-05-07 14:47 | 11.08139 | 106.69887 | 12143 ft | 355 kts | 53° |
| 2026-05-07 14:47 | 11.09577 | 106.71761 | 12626 ft | 358 kts | 53° |
| 2026-05-07 14:47 | 11.11064 | 106.73703 | 13075 ft | 361 kts | 53° |
| 2026-05-07 14:47 | 11.12579 | 106.75680 | 13503 ft | 365 kts | 53° |
| 2026-05-07 14:48 | 11.14152 | 106.77734 | 13968 ft | 367 kts | 53° |
| 2026-05-07 14:48 | 11.15735 | 106.79800 | 14411 ft | 370 kts | 53° |
| 2026-05-07 14:48 | 11.17360 | 106.81918 | 14864 ft | 373 kts | 53° |
| 2026-05-07 14:48 | 11.18955 | 106.83998 | 15301 ft | 375 kts | 53° |
| 2026-05-07 14:49 | 11.20589 | 106.86132 | 15736 ft | 378 kts | 53° |
| 2026-05-07 14:49 | 11.22217 | 106.88258 | 16158 ft | 380 kts | 53° |
| 2026-05-07 14:49 | 11.23860 | 106.90407 | 16558 ft | 383 kts | 54° |
| 2026-05-07 14:49 | 11.25527 | 106.92587 | 16956 ft | 386 kts | 54° |
| 2026-05-07 14:50 | 11.27210 | 106.94788 | 17351 ft | 388 kts | 54° |
| 2026-05-07 14:50 | 11.28910 | 106.97013 | 17736 ft | 391 kts | 54° |
| 2026-05-07 14:50 | 11.30619 | 106.99250 | 18123 ft | 393 kts | 53° |
| 2026-05-07 14:50 | 11.32324 | 107.01482 | 18478 ft | 396 kts | 53° |
| 2026-05-07 14:51 | 11.34080 | 107.03724 | 18840 ft | 399 kts | 51° |
| 2026-05-07 14:51 | 11.36016 | 107.05830 | 19184 ft | 402 kts | 45° |
| 2026-05-07 14:51 | 11.38141 | 107.07755 | 19547 ft | 405 kts | 40° |
| 2026-05-07 14:51 | 11.40402 | 107.09528 | 19907 ft | 407 kts | 39° |
| 2026-05-07 14:52 | 11.42760 | 107.11325 | 20265 ft | 409 kts | 38° |
| 2026-05-07 14:52 | 11.45099 | 107.13101 | 20617 ft | 411 kts | 38° |
| 2026-05-07 14:52 | 11.47459 | 107.14895 | 20959 ft | 413 kts | 38° |
| 2026-05-07 14:52 | 11.49816 | 107.16689 | 21293 ft | 415 kts | 38° |
| 2026-05-07 14:53 | 11.52169 | 107.18484 | 21622 ft | 417 kts | 38° |
| 2026-05-07 14:53 | 11.54521 | 107.20280 | 21951 ft | 419 kts | 38° |
| 2026-05-07 14:53 | 11.56884 | 107.22086 | 22278 ft | 421 kts | 38° |
| 2026-05-07 14:53 | 11.59270 | 107.23910 | 22600 ft | 423 kts | 38° |
| 2026-05-07 14:54 | 11.61676 | 107.25751 | 22926 ft | 425 kts | 38° |
| 2026-05-07 14:54 | 11.64063 | 107.27576 | 23231 ft | 428 kts | 38° |
| 2026-05-07 14:54 | 11.66484 | 107.29429 | 23548 ft | 430 kts | 38° |
| 2026-05-07 14:54 | 11.68904 | 107.31281 | 23864 ft | 432 kts | 38° |
| 2026-05-07 14:55 | 11.71393 | 107.33186 | 24177 ft | 434 kts | 38° |
| 2026-05-07 14:55 | 11.73847 | 107.35064 | 24490 ft | 436 kts | 38° |
| 2026-05-07 14:55 | 11.76344 | 107.36975 | 24794 ft | 438 kts | 38° |
| 2026-05-07 14:55 | 11.78823 | 107.38873 | 25089 ft | 440 kts | 38° |
| 2026-05-07 14:56 | 11.81296 | 107.40768 | 25376 ft | 442 kts | 38° |
| 2026-05-07 14:56 | 11.83775 | 107.42670 | 25644 ft | 444 kts | 38° |
| 2026-05-07 14:56 | 11.86269 | 107.44582 | 25908 ft | 446 kts | 37° |
| 2026-05-07 14:56 | 11.88779 | 107.46506 | 26174 ft | 448 kts | 37° |
| 2026-05-07 14:57 | 11.91292 | 107.48434 | 26435 ft | 450 kts | 37° |
| 2026-05-07 14:57 | 11.93851 | 107.50398 | 26683 ft | 453 kts | 37° |
| 2026-05-07 14:57 | 11.96384 | 107.52342 | 26931 ft | 455 kts | 37° |
| 2026-05-07 14:57 | 11.98961 | 107.54320 | 27207 ft | 456 kts | 37° |
| 2026-05-07 14:58 | 12.01542 | 107.56301 | 27456 ft | 458 kts | 37° |
| 2026-05-07 14:58 | 12.04124 | 107.58284 | 27681 ft | 460 kts | 37° |
| 2026-05-07 14:58 | 12.06694 | 107.60259 | 27901 ft | 461 kts | 37° |
| 2026-05-07 14:58 | 12.09279 | 107.62244 | 28117 ft | 463 kts | 37° |
| 2026-05-07 14:59 | 12.11907 | 107.64265 | 28334 ft | 464 kts | 37° |
| 2026-05-07 14:59 | 12.14478 | 107.66241 | 28534 ft | 465 kts | 37° |
| 2026-05-07 14:59 | 12.17116 | 107.68271 | 28722 ft | 467 kts | 37° |
| 2026-05-07 14:59 | 12.19740 | 107.70290 | 28894 ft | 469 kts | 37° |
| 2026-05-07 15:00 | 12.22378 | 107.72321 | 29086 ft | 470 kts | 37° |
| 2026-05-07 15:00 | 12.25034 | 107.74366 | 29369 ft | 469 kts | 37° |
| 2026-05-07 15:00 | 12.27721 | 107.76435 | 29667 ft | 467 kts | 37° |
| 2026-05-07 15:00 | 12.30481 | 107.78305 | 29902 ft | 466 kts | 28° |
| 2026-05-07 15:01 | 12.33441 | 107.79710 | 30139 ft | 465 kts | 20° |
| 2026-05-07 15:01 | 12.36694 | 107.80686 | 30380 ft | 464 kts | 11° |
| 2026-05-07 15:01 | 12.40076 | 107.81156 | 30622 ft | 463 kts | 3° |
| 2026-05-07 15:01 | 12.43390 | 107.81270 | 30871 ft | 462 kts | 1° |
| 2026-05-07 15:02 | 12.46629 | 107.81324 | 31099 ft | 462 kts | 1° |
| 2026-05-07 15:02 | 12.49882 | 107.81370 | 31298 ft | 461 kts | 0° |
| 2026-05-07 15:02 | 12.53151 | 107.81421 | 31507 ft | 461 kts | 0° |
| 2026-05-07 15:02 | 12.56444 | 107.81477 | 31717 ft | 461 kts | 0° |
| 2026-05-07 15:03 | 12.59795 | 107.81538 | 31924 ft | 460 kts | 0° |
| 2026-05-07 15:03 | 12.63061 | 107.81598 | 32131 ft | 460 kts | 0° |
| 2026-05-07 15:03 | 12.66295 | 107.81660 | 32352 ft | 459 kts | 0° |
| 2026-05-07 15:03 | 12.69633 | 107.81725 | 32708 ft | 455 kts | 0° |
| 2026-05-07 15:04 | 12.72820 | 107.81789 | 33894 ft | 434 kts | 0° |
| 2026-05-07 15:04 | 12.75825 | 107.81850 | 34969 ft | 416 kts | 360° |
| 2026-05-07 15:04 | 12.78745 | 107.81908 | 35657 ft | 406 kts | 360° |
| 2026-05-07 15:04 | 12.81613 | 107.81964 | 35941 ft | 405 kts | 360° |
| 2026-05-07 15:05 | 12.87425 | 107.82076 | 35940 ft | 413 kts | 360° |
| 2026-05-07 15:05 | 12.93354 | 107.82191 | 35936 ft | 421 kts | 360° |
| 2026-05-07 15:06 | 12.99417 | 107.82310 | 35932 ft | 429 kts | 360° |
| 2026-05-07 15:06 | 13.05487 | 107.82430 | 35932 ft | 435 kts | 360° |
| 2026-05-07 15:07 | 13.11702 | 107.82553 | 35933 ft | 440 kts | 360° |
| 2026-05-07 15:07 | 13.17969 | 107.82677 | 35934 ft | 445 kts | 360° |
| 2026-05-07 15:08 | 13.24276 | 107.82803 | 35930 ft | 449 kts | 0° |
| 2026-05-07 15:08 | 13.30591 | 107.82929 | 35930 ft | 450 kts | 0° |
| 2026-05-07 15:09 | 13.36904 | 107.83057 | 35930 ft | 449 kts | 0° |
| 2026-05-07 15:09 | 13.43239 | 107.83188 | 35942 ft | 450 kts | 0° |
| 2026-05-07 15:10 | 13.49662 | 107.83323 | 35945 ft | 450 kts | 0° |
| 2026-05-07 15:10 | 13.56030 | 107.83456 | 35953 ft | 450 kts | 0° |
| 2026-05-07 15:11 | 13.62387 | 107.83588 | 35955 ft | 450 kts | 0° |
| 2026-05-07 15:11 | 13.68780 | 107.83720 | 35962 ft | 450 kts | 0° |
| 2026-05-07 15:12 | 13.75149 | 107.83852 | 35976 ft | 450 kts | 0° |
| 2026-05-07 15:12 | 13.81554 | 107.83986 | 35978 ft | 449 kts | 0° |
| 2026-05-07 15:13 | 13.87869 | 107.84117 | 35987 ft | 449 kts | 0° |
| 2026-05-07 15:13 | 13.94231 | 107.84250 | 35924 ft | 447 kts | 0° |
| 2026-05-07 15:14 | 13.97388 | 107.84316 | 35533 ft | 443 kts | 0° |
| 2026-05-07 15:14 | 14.00491 | 107.84380 | 34831 ft | 442 kts | 360° |
| 2026-05-07 15:14 | 14.03608 | 107.84373 | 34020 ft | 442 kts | 359° |
| 2026-05-07 15:14 | 14.06796 | 107.84355 | 33094 ft | 445 kts | 359° |
| 2026-05-07 15:15 | 14.09959 | 107.84354 | 32141 ft | 450 kts | 359° |
| 2026-05-07 15:15 | 14.13151 | 107.84355 | 31198 ft | 455 kts | 360° |
| 2026-05-07 15:15 | 14.16435 | 107.84357 | 30279 ft | 458 kts | 360° |
| 2026-05-07 15:15 | 14.19724 | 107.84359 | 29397 ft | 461 kts | 360° |
| 2026-05-07 15:16 | 14.23081 | 107.84360 | 28756 ft | 459 kts | 360° |
| 2026-05-07 15:16 | 14.26414 | 107.84363 | 28498 ft | 461 kts | 0° |
| 2026-05-07 15:16 | 14.29749 | 107.84364 | 28239 ft | 460 kts | 0° |
| 2026-05-07 15:16 | 14.32978 | 107.84367 | 27990 ft | 459 kts | 0° |
| 2026-05-07 15:17 | 14.36236 | 107.84369 | 27727 ft | 458 kts | 0° |
| 2026-05-07 15:17 | 14.39484 | 107.84371 | 27421 ft | 456 kts | 0° |
| 2026-05-07 15:17 | 14.41703 | 107.84372 | 27193 ft | 455 kts | 0° |
| 2026-05-07 15:17 | 14.42727 | 107.84373 | 27074 ft | 454 kts | 0° |
| 2026-05-07 15:18 | 14.45937 | 107.84370 | 26633 ft | 451 kts | 0° |
| 2026-05-07 15:18 | 14.49110 | 107.84370 | 26035 ft | 450 kts | 0° |
| 2026-05-07 15:18 | 14.52358 | 107.84370 | 25320 ft | 449 kts | 0° |
| 2026-05-07 15:18 | 14.55550 | 107.84370 | 24695 ft | 446 kts | 1° |
| 2026-05-07 15:19 | 14.58716 | 107.84371 | 24188 ft | 440 kts | 1° |
| 2026-05-07 15:19 | 14.61838 | 107.84372 | 23684 ft | 434 kts | 1° |
| 2026-05-07 15:19 | 14.64984 | 107.84372 | 23180 ft | 429 kts | 1° |
| 2026-05-07 15:19 | 14.68029 | 107.84373 | 22690 ft | 424 kts | 1° |
| 2026-05-07 15:20 | 14.71090 | 107.84371 | 22162 ft | 421 kts | 1° |
| 2026-05-07 15:20 | 14.74066 | 107.84372 | 21662 ft | 418 kts | 1° |
| 2026-05-07 15:20 | 14.77013 | 107.84373 | 21175 ft | 415 kts | 1° |
| 2026-05-07 15:20 | 14.79974 | 107.84373 | 20681 ft | 413 kts | 1° |
| 2026-05-07 15:21 | 14.82871 | 107.84372 | 20195 ft | 410 kts | 1° |
| 2026-05-07 15:21 | 14.85826 | 107.84433 | 19671 ft | 408 kts | 6° |
| 2026-05-07 15:21 | 14.88680 | 107.84847 | 19134 ft | 404 kts | 14° |
| 2026-05-07 15:21 | 14.91431 | 107.85637 | 18617 ft | 400 kts | 20° |
| 2026-05-07 15:22 | 14.94063 | 107.86601 | 18116 ft | 398 kts | 22° |
| 2026-05-07 15:22 | 14.96679 | 107.87593 | 17615 ft | 395 kts | 22° |
| 2026-05-07 15:22 | 14.99274 | 107.88580 | 17124 ft | 393 kts | 22° |
| 2026-05-07 15:22 | 15.01961 | 107.89601 | 16600 ft | 391 kts | 22° |
| 2026-05-07 15:23 | 15.04629 | 107.90611 | 16068 ft | 389 kts | 21° |
| 2026-05-07 15:23 | 15.07254 | 107.91602 | 15539 ft | 387 kts | 21° |
| 2026-05-07 15:23 | 15.09822 | 107.92569 | 15017 ft | 384 kts | 21° |
| 2026-05-07 15:23 | 15.12378 | 107.93529 | 14522 ft | 381 kts | 21° |
| 2026-05-07 15:24 | 15.14894 | 107.94476 | 14040 ft | 378 kts | 21° |
| 2026-05-07 15:24 | 15.17409 | 107.95422 | 13545 ft | 375 kts | 21° |
| 2026-05-07 15:24 | 15.19857 | 107.96345 | 13048 ft | 372 kts | 21° |
| 2026-05-07 15:24 | 15.22365 | 107.97289 | 12544 ft | 368 kts | 21° |
| 2026-05-07 15:25 | 15.24751 | 107.98187 | 12034 ft | 366 kts | 21° |
| 2026-05-07 15:25 | 15.27180 | 107.99101 | 11553 ft | 363 kts | 21° |
| 2026-05-07 15:25 | 15.29581 | 108.00004 | 11076 ft | 360 kts | 20° |
| 2026-05-07 15:25 | 15.31940 | 108.00891 | 10709 ft | 354 kts | 20° |
| 2026-05-07 15:26 | 15.34224 | 108.01751 | 10531 ft | 333 kts | 20° |
| 2026-05-07 15:26 | 15.36352 | 108.02552 | 10354 ft | 309 kts | 20° |
| 2026-05-07 15:26 | 15.38343 | 108.03301 | 10162 ft | 295 kts | 20° |
| 2026-05-07 15:26 | 15.40313 | 108.04044 | 9638 ft | 295 kts | 20° |
| 2026-05-07 15:27 | 15.42242 | 108.04839 | 9115 ft | 294 kts | 24° |
| 2026-05-07 15:27 | 15.44094 | 108.05756 | 8568 ft | 289 kts | 26° |
| 2026-05-07 15:27 | 15.45898 | 108.06686 | 8046 ft | 284 kts | 26° |
| 2026-05-07 15:27 | 15.47773 | 108.07658 | 7495 ft | 278 kts | 26° |
| 2026-05-07 15:28 | 15.49676 | 108.08643 | 6928 ft | 275 kts | 26° |
| 2026-05-07 15:28 | 15.51513 | 108.09595 | 6364 ft | 273 kts | 26° |
| 2026-05-07 15:28 | 15.53420 | 108.10581 | 5791 ft | 272 kts | 26° |
| 2026-05-07 15:28 | 15.55284 | 108.11544 | 5253 ft | 269 kts | 27° |
| 2026-05-07 15:29 | 15.57114 | 108.12490 | 5041 ft | 268 kts | 27° |
| 2026-05-07 15:29 | 15.58948 | 108.13440 | 5045 ft | 270 kts | 27° |
| 2026-05-07 15:29 | 15.60817 | 108.14406 | 5032 ft | 269 kts | 27° |
| 2026-05-07 15:29 | 15.62650 | 108.15355 | 4824 ft | 263 kts | 27° |